Alabama, New York
Current Conditions -  °F | °C
As of 8:54 PM on Thursday 20 Nov 2014 (Local Time) from KBUF Reporting Station
Overcast Overcast  
Wind Chill:   Ceiling: 10000
Heat Index: 21°   Visibility: 10mi
Dew Point: 13°   Wind: 12mph
Humidity: 71%   Direction: 250°WSW
Pressure: 29.96"   Gusts: NA
Location:  43.1°N, 78.39°W
Report Text: KBUF 210154Z 25010KT 10SM BKN100 OVC110 M06/M11 A2996 RMK AO2 SLP156 T10611106
Loading
Personal Weather Stations






























Interactive Weather Map New forecast layout! Learn more

10-Day Weather Forecast

Advertisements
Track Severe Weather on mobile